sensor_id;sensor_type;location;lat;lon;timestamp;temperature;humidity
17370;DHT22;8802;52.402;4.920;2023-01-05T00:02:14;13.70;99.90
17370;DHT22;8802;52.402;4.920;2023-01-05T00:04:41;13.70;99.90
17370;DHT22;8802;52.402;4.920;2023-01-05T00:07:09;13.70;99.90
17370;DHT22;8802;52.402;4.920;2023-01-05T00:09:36;13.70;99.90
17370;DHT22;8802;52.402;4.920;2023-01-05T00:12:03;13.70;99.90
17370;DHT22;8802;52.402;4.920;2023-01-05T00:14:48;13.70;99.90
17370;DHT22;8802;52.402;4.920;2023-01-05T00:17:46;13.70;99.90
17370;DHT22;8802;52.402;4.920;2023-01-05T00:20:31;13.70;99.90
17370;DHT22;8802;52.402;4.920;2023-01-05T00:23:17;13.70;99.90
17370;DHT22;8802;52.402;4.920;2023-01-05T00:25:45;13.70;99.90
17370;DHT22;8802;52.402;4.920;2023-01-05T00:28:12;13.70;99.90
17370;DHT22;8802;52.402;4.920;2023-01-05T00:30:40;13.70;99.90
17370;DHT22;8802;52.402;4.920;2023-01-05T00:33:08;13.70;99.90
17370;DHT22;8802;52.402;4.920;2023-01-05T00:35:35;13.70;99.90
17370;DHT22;8802;52.402;4.920;2023-01-05T00:38:03;13.70;99.90
17370;DHT22;8802;52.402;4.920;2023-01-05T00:40:31;13.60;99.90
17370;DHT22;8802;52.402;4.920;2023-01-05T00:42:58;13.70;99.90
17370;DHT22;8802;52.402;4.920;2023-01-05T00:45:25;13.60;99.90
17370;DHT22;8802;52.402;4.920;2023-01-05T00:47:52;13.60;99.90
17370;DHT22;8802;52.402;4.920;2023-01-05T00:50:20;13.70;99.90
17370;DHT22;8802;52.402;4.920;2023-01-05T00:52:48;13.60;99.90
17370;DHT22;8802;52.402;4.920;2023-01-05T00:55:15;13.60;99.90
17370;DHT22;8802;52.402;4.920;2023-01-05T00:57:43;13.60;99.90
17370;DHT22;8802;52.402;4.920;2023-01-05T01:00:13;13.50;99.90
17370;DHT22;8802;52.402;4.920;2023-01-05T01:02:41;13.60;99.90
17370;DHT22;8802;52.402;4.920;2023-01-05T01:05:09;13.60;99.90
17370;DHT22;8802;52.402;4.920;2023-01-05T01:07:35;13.60;99.90
17370;DHT22;8802;52.402;4.920;2023-01-05T01:10:03;13.60;99.90
17370;DHT22;8802;52.402;4.920;2023-01-05T01:12:30;13.50;99.90
17370;DHT22;8802;52.402;4.920;2023-01-05T01:14:58;13.60;99.90
17370;DHT22;8802;52.402;4.920;2023-01-05T01:17:25;13.50;99.90
17370;DHT22;8802;52.402;4.920;2023-01-05T01:19:52;13.50;99.90
17370;DHT22;8802;52.402;4.920;2023-01-05T01:22:19;13.50;99.90
17370;DHT22;8802;52.402;4.920;2023-01-05T01:24:45;13.50;99.90
17370;DHT22;8802;52.402;4.920;2023-01-05T01:27:12;13.50;99.90
17370;DHT22;8802;52.402;4.920;2023-01-05T01:29:39;13.50;99.90
17370;DHT22;8802;52.402;4.920;2023-01-05T01:32:07;13.50;99.90
17370;DHT22;8802;52.402;4.920;2023-01-05T01:34:34;13.50;99.90
17370;DHT22;8802;52.402;4.920;2023-01-05T01:37:01;13.50;99.90
17370;DHT22;8802;52.402;4.920;2023-01-05T01:39:28;13.50;99.90
17370;DHT22;8802;52.402;4.920;2023-01-05T01:41:55;13.50;99.90
17370;DHT22;8802;52.402;4.920;2023-01-05T01:44:51;13.50;99.90
17370;DHT22;8802;52.402;4.920;2023-01-05T01:47:24;13.50;99.90
17370;DHT22;8802;52.402;4.920;2023-01-05T01:49:54;13.60;99.90
17370;DHT22;8802;52.402;4.920;2023-01-05T01:52:23;13.60;99.90
17370;DHT22;8802;52.402;4.920;2023-01-05T01:54:52;13.60;99.90
17370;DHT22;8802;52.402;4.920;2023-01-05T01:57:20;13.60;99.90
17370;DHT22;8802;52.402;4.920;2023-01-05T01:59:48;13.60;99.90
17370;DHT22;8802;52.402;4.920;2023-01-05T02:02:15;13.60;99.90
17370;DHT22;8802;52.402;4.920;2023-01-05T02:04:43;13.60;99.90
17370;DHT22;8802;52.402;4.920;2023-01-05T02:07:12;13.60;99.90
17370;DHT22;8802;52.402;4.920;2023-01-05T02:09:40;13.60;99.90
17370;DHT22;8802;52.402;4.920;2023-01-05T02:12:17;13.60;99.90
17370;DHT22;8802;52.402;4.920;2023-01-05T02:14:59;13.60;99.90
17370;DHT22;8802;52.402;4.920;2023-01-05T02:17:37;13.60;99.90
17370;DHT22;8802;52.402;4.920;2023-01-05T02:20:29;13.60;99.90
17370;DHT22;8802;52.402;4.920;2023-01-05T02:23:12;13.70;99.90
17370;DHT22;8802;52.402;4.920;2023-01-05T02:28:45;13.70;99.90
17370;DHT22;8802;52.402;4.920;2023-01-05T02:31:18;13.70;99.90
17370;DHT22;8802;52.402;4.920;2023-01-05T02:33:57;13.60;99.90
17370;DHT22;8802;52.402;4.920;2023-01-05T02:36:28;13.70;99.90
17370;DHT22;8802;52.402;4.920;2023-01-05T02:39:03;13.70;99.90
17370;DHT22;8802;52.402;4.920;2023-01-05T02:41:35;13.70;99.90
17370;DHT22;8802;52.402;4.920;2023-01-05T02:44:03;13.70;99.90
17370;DHT22;8802;52.402;4.920;2023-01-05T02:46:34;13.70;99.90
17370;DHT22;8802;52.402;4.920;2023-01-05T02:49:02;13.70;99.90
17370;DHT22;8802;52.402;4.920;2023-01-05T02:51:33;13.70;99.90
17370;DHT22;8802;52.402;4.920;2023-01-05T02:54:04;13.70;99.90
17370;DHT22;8802;52.402;4.920;2023-01-05T02:56:34;13.70;99.90
17370;DHT22;8802;52.402;4.920;2023-01-05T02:59:06;13.70;99.90
17370;DHT22;8802;52.402;4.920;2023-01-05T03:01:38;13.70;99.90
17370;DHT22;8802;52.402;4.920;2023-01-05T03:04:08;13.80;99.90
17370;DHT22;8802;52.402;4.920;2023-01-05T03:06:40;13.80;99.90
17370;DHT22;8802;52.402;4.920;2023-01-05T03:09:13;13.80;99.90
17370;DHT22;8802;52.402;4.920;2023-01-05T03:11:44;13.80;99.90
17370;DHT22;8802;52.402;4.920;2023-01-05T03:14:35;13.80;99.90
17370;DHT22;8802;52.402;4.920;2023-01-05T03:17:06;13.80;99.90
17370;DHT22;8802;52.402;4.920;2023-01-05T03:19:34;13.80;99.90
17370;DHT22;8802;52.402;4.920;2023-01-05T03:22:03;13.70;99.90
17370;DHT22;8802;52.402;4.920;2023-01-05T03:24:49;13.80;99.90
17370;DHT22;8802;52.402;4.920;2023-01-05T03:27:34;13.80;99.90
17370;DHT22;8802;52.402;4.920;2023-01-05T03:30:20;13.80;99.90
17370;DHT22;8802;52.402;4.920;2023-01-05T03:33:11;13.80;99.90
17370;DHT22;8802;52.402;4.920;2023-01-05T03:35:58;13.80;99.90
17370;DHT22;8802;52.402;4.920;2023-01-05T03:38:29;13.80;99.90
17370;DHT22;8802;52.402;4.920;2023-01-05T03:41:00;13.80;99.90
17370;DHT22;8802;52.402;4.920;2023-01-05T03:43:28;13.80;99.90
17370;DHT22;8802;52.402;4.920;2023-01-05T03:45:58;13.80;99.90
17370;DHT22;8802;52.402;4.920;2023-01-05T03:48:27;13.80;99.90
17370;DHT22;8802;52.402;4.920;2023-01-05T03:50:54;13.80;99.90
17370;DHT22;8802;52.402;4.920;2023-01-05T03:53:21;13.80;99.90
17370;DHT22;8802;52.402;4.920;2023-01-05T03:55:48;13.80;99.90
17370;DHT22;8802;52.402;4.920;2023-01-05T03:58:14;13.80;99.90
17370;DHT22;8802;52.402;4.920;2023-01-05T04:00:41;13.80;99.90
17370;DHT22;8802;52.402;4.920;2023-01-05T04:03:08;13.80;99.90
17370;DHT22;8802;52.402;4.920;2023-01-05T04:05:36;13.80;99.90
17370;DHT22;8802;52.402;4.920;2023-01-05T04:08:04;13.80;99.90
17370;DHT22;8802;52.402;4.920;2023-01-05T04:10:31;13.80;99.90
17370;DHT22;8802;52.402;4.920;2023-01-05T04:12:57;13.80;99.90
17370;DHT22;8802;52.402;4.920;2023-01-05T04:15:24;13.80;99.90
17370;DHT22;8802;52.402;4.920;2023-01-05T04:17:51;13.80;99.90
17370;DHT22;8802;52.402;4.920;2023-01-05T04:20:18;13.80;99.90
17370;DHT22;8802;52.402;4.920;2023-01-05T04:22:47;13.80;99.90
17370;DHT22;8802;52.402;4.920;2023-01-05T04:25:13;13.80;99.90
17370;DHT22;8802;52.402;4.920;2023-01-05T04:27:40;13.80;99.90
17370;DHT22;8802;52.402;4.920;2023-01-05T04:30:08;13.80;99.90
17370;DHT22;8802;52.402;4.920;2023-01-05T04:32:35;13.80;99.90
17370;DHT22;8802;52.402;4.920;2023-01-05T04:35:03;13.80;99.90
17370;DHT22;8802;52.402;4.920;2023-01-05T04:37:30;13.80;99.90
17370;DHT22;8802;52.402;4.920;2023-01-05T04:39:58;13.80;99.90
17370;DHT22;8802;52.402;4.920;2023-01-05T04:42:25;13.80;99.90
17370;DHT22;8802;52.402;4.920;2023-01-05T04:44:51;13.80;99.90
17370;DHT22;8802;52.402;4.920;2023-01-05T04:47:18;13.80;99.90
17370;DHT22;8802;52.402;4.920;2023-01-05T04:49:45;13.80;99.90
17370;DHT22;8802;52.402;4.920;2023-01-05T04:52:12;13.80;99.90
17370;DHT22;8802;52.402;4.920;2023-01-05T04:54:39;13.80;99.90
17370;DHT22;8802;52.402;4.920;2023-01-05T04:57:07;13.80;99.90
17370;DHT22;8802;52.402;4.920;2023-01-05T04:59:34;13.80;99.90
17370;DHT22;8802;52.402;4.920;2023-01-05T05:02:01;13.80;99.90
17370;DHT22;8802;52.402;4.920;2023-01-05T05:04:28;13.80;99.90
17370;DHT22;8802;52.402;4.920;2023-01-05T05:06:54;13.80;99.90
17370;DHT22;8802;52.402;4.920;2023-01-05T05:09:21;13.80;99.90
17370;DHT22;8802;52.402;4.920;2023-01-05T05:11:48;13.80;99.90
17370;DHT22;8802;52.402;4.920;2023-01-05T05:14:16;13.80;99.90
17370;DHT22;8802;52.402;4.920;2023-01-05T05:16:43;13.80;99.90
17370;DHT22;8802;52.402;4.920;2023-01-05T05:19:10;13.80;99.90
17370;DHT22;8802;52.402;4.920;2023-01-05T05:21:37;13.90;99.90
17370;DHT22;8802;52.402;4.920;2023-01-05T05:24:04;13.80;99.90
17370;DHT22;8802;52.402;4.920;2023-01-05T05:26:31;13.80;99.90
17370;DHT22;8802;52.402;4.920;2023-01-05T05:28:58;13.80;99.90
17370;DHT22;8802;52.402;4.920;2023-01-05T05:31:26;13.80;99.90
17370;DHT22;8802;52.402;4.920;2023-01-05T05:33:53;13.80;99.90
17370;DHT22;8802;52.402;4.920;2023-01-05T05:36:20;13.80;99.90
17370;DHT22;8802;52.402;4.920;2023-01-05T05:38:47;13.80;99.90
17370;DHT22;8802;52.402;4.920;2023-01-05T05:41:14;13.80;99.90
17370;DHT22;8802;52.402;4.920;2023-01-05T05:43:40;13.80;99.90
17370;DHT22;8802;52.402;4.920;2023-01-05T05:46:07;13.70;99.90
17370;DHT22;8802;52.402;4.920;2023-01-05T05:48:35;13.70;99.90
17370;DHT22;8802;52.402;4.920;2023-01-05T05:51:03;13.80;99.90
17370;DHT22;8802;52.402;4.920;2023-01-05T05:53:30;13.80;99.90
17370;DHT22;8802;52.402;4.920;2023-01-05T05:55:56;13.80;99.90
17370;DHT22;8802;52.402;4.920;2023-01-05T05:58:23;13.80;99.90
17370;DHT22;8802;52.402;4.920;2023-01-05T06:00:50;13.80;99.90
17370;DHT22;8802;52.402;4.920;2023-01-05T06:03:17;13.80;99.90
17370;DHT22;8802;52.402;4.920;2023-01-05T06:05:45;13.80;99.90
17370;DHT22;8802;52.402;4.920;2023-01-05T06:08:12;13.70;99.90
17370;DHT22;8802;52.402;4.920;2023-01-05T06:10:39;13.80;99.90
17370;DHT22;8802;52.402;4.920;2023-01-05T06:13:05;13.80;99.90
17370;DHT22;8802;52.402;4.920;2023-01-05T06:15:32;13.80;99.90
17370;DHT22;8802;52.402;4.920;2023-01-05T06:17:59;13.70;99.90
17370;DHT22;8802;52.402;4.920;2023-01-05T06:20:26;13.80;99.90
17370;DHT22;8802;52.402;4.920;2023-01-05T06:22:54;13.80;99.90
17370;DHT22;8802;52.402;4.920;2023-01-05T06:25:21;13.80;99.90
17370;DHT22;8802;52.402;4.920;2023-01-05T06:27:48;13.70;99.90
17370;DHT22;8802;52.402;4.920;2023-01-05T06:30:15;13.70;99.90
17370;DHT22;8802;52.402;4.920;2023-01-05T06:32:42;13.80;99.90
17370;DHT22;8802;52.402;4.920;2023-01-05T06:35:08;13.80;99.90
17370;DHT22;8802;52.402;4.920;2023-01-05T06:37:35;13.70;99.90
17370;DHT22;8802;52.402;4.920;2023-01-05T06:40:04;13.70;99.90
17370;DHT22;8802;52.402;4.920;2023-01-05T06:42:33;13.70;99.90
17370;DHT22;8802;52.402;4.920;2023-01-05T06:45:00;13.80;99.90
17370;DHT22;8802;52.402;4.920;2023-01-05T06:47:26;13.80;99.90
17370;DHT22;8802;52.402;4.920;2023-01-05T06:49:53;13.80;99.90
17370;DHT22;8802;52.402;4.920;2023-01-05T06:52:20;13.80;99.90
17370;DHT22;8802;52.402;4.920;2023-01-05T06:54:47;13.80;99.90
17370;DHT22;8802;52.402;4.920;2023-01-05T06:57:16;13.70;99.90
17370;DHT22;8802;52.402;4.920;2023-01-05T06:59:43;13.70;99.90
17370;DHT22;8802;52.402;4.920;2023-01-05T07:02:12;13.80;99.90
17370;DHT22;8802;52.402;4.920;2023-01-05T07:04:39;13.80;99.90
17370;DHT22;8802;52.402;4.920;2023-01-05T07:07:07;13.80;99.90
17370;DHT22;8802;52.402;4.920;2023-01-05T07:09:34;13.80;99.90
17370;DHT22;8802;52.402;4.920;2023-01-05T07:12:01;13.70;99.90
17370;DHT22;8802;52.402;4.920;2023-01-05T07:14:29;13.70;99.90
17370;DHT22;8802;52.402;4.920;2023-01-05T07:16:56;13.70;99.90
17370;DHT22;8802;52.402;4.920;2023-01-05T07:19:23;13.80;99.90
17370;DHT22;8802;52.402;4.920;2023-01-05T07:21:50;13.70;99.90
17370;DHT22;8802;52.402;4.920;2023-01-05T07:24:17;13.70;99.90
17370;DHT22;8802;52.402;4.920;2023-01-05T07:26:44;13.70;99.90
17370;DHT22;8802;52.402;4.920;2023-01-05T07:29:11;13.70;99.90
17370;DHT22;8802;52.402;4.920;2023-01-05T07:31:39;13.70;99.90
17370;DHT22;8802;52.402;4.920;2023-01-05T07:34:07;13.70;99.90
17370;DHT22;8802;52.402;4.920;2023-01-05T07:36:34;13.70;99.90
17370;DHT22;8802;52.402;4.920;2023-01-05T07:39:00;13.70;99.90
17370;DHT22;8802;52.402;4.920;2023-01-05T07:41:27;13.70;99.90
17370;DHT22;8802;52.402;4.920;2023-01-05T07:43:54;13.70;99.90
17370;DHT22;8802;52.402;4.920;2023-01-05T07:46:21;13.70;99.90
17370;DHT22;8802;52.402;4.920;2023-01-05T07:48:49;13.70;99.90
17370;DHT22;8802;52.402;4.920;2023-01-05T07:51:16;13.70;99.90
17370;DHT22;8802;52.402;4.920;2023-01-05T07:53:43;13.70;99.90
17370;DHT22;8802;52.402;4.920;2023-01-05T07:56:11;13.70;99.90
17370;DHT22;8802;52.402;4.920;2023-01-05T07:58:38;13.70;99.90
17370;DHT22;8802;52.402;4.920;2023-01-05T08:01:08;13.80;99.90
17370;DHT22;8802;52.402;4.920;2023-01-05T08:03:35;13.80;99.90
17370;DHT22;8802;52.402;4.920;2023-01-05T08:06:05;13.80;99.90
17370;DHT22;8802;52.402;4.920;2023-01-05T08:08:32;13.80;99.90
17370;DHT22;8802;52.402;4.920;2023-01-05T08:10:59;13.70;99.90
17370;DHT22;8802;52.402;4.920;2023-01-05T08:13:28;13.80;99.90
17370;DHT22;8802;52.402;4.920;2023-01-05T08:16:18;13.80;99.90
17370;DHT22;8802;52.402;4.920;2023-01-05T08:18:45;13.80;99.90
17370;DHT22;8802;52.402;4.920;2023-01-05T08:21:13;13.80;99.90
17370;DHT22;8802;52.402;4.920;2023-01-05T08:23:40;13.80;99.90
17370;DHT22;8802;52.402;4.920;2023-01-05T08:26:09;13.80;99.90
17370;DHT22;8802;52.402;4.920;2023-01-05T08:28:37;13.80;99.90
17370;DHT22;8802;52.402;4.920;2023-01-05T08:31:06;13.80;99.90
17370;DHT22;8802;52.402;4.920;2023-01-05T08:33:33;13.80;99.90
17370;DHT22;8802;52.402;4.920;2023-01-05T08:36:01;13.80;99.90
17370;DHT22;8802;52.402;4.920;2023-01-05T08:38:29;13.80;99.90
17370;DHT22;8802;52.402;4.920;2023-01-05T08:40:57;13.80;99.90
17370;DHT22;8802;52.402;4.920;2023-01-05T08:43:25;13.80;99.90
17370;DHT22;8802;52.402;4.920;2023-01-05T08:45:51;13.80;99.90
17370;DHT22;8802;52.402;4.920;2023-01-05T08:48:18;13.80;99.90
17370;DHT22;8802;52.402;4.920;2023-01-05T08:50:45;13.80;99.90
17370;DHT22;8802;52.402;4.920;2023-01-05T08:53:12;13.80;99.90
17370;DHT22;8802;52.402;4.920;2023-01-05T08:55:40;13.80;99.90
17370;DHT22;8802;52.402;4.920;2023-01-05T08:58:07;13.80;99.90
17370;DHT22;8802;52.402;4.920;2023-01-05T09:00:34;13.80;99.90
17370;DHT22;8802;52.402;4.920;2023-01-05T09:03:01;13.80;99.90
17370;DHT22;8802;52.402;4.920;2023-01-05T09:05:28;13.80;99.90
17370;DHT22;8802;52.402;4.920;2023-01-05T09:07:55;13.80;99.90
17370;DHT22;8802;52.402;4.920;2023-01-05T09:10:21;13.80;99.90
17370;DHT22;8802;52.402;4.920;2023-01-05T09:12:50;13.80;99.90
17370;DHT22;8802;52.402;4.920;2023-01-05T09:15:16;13.80;99.90
17370;DHT22;8802;52.402;4.920;2023-01-05T09:17:43;13.80;99.90
17370;DHT22;8802;52.402;4.920;2023-01-05T09:20:10;13.80;99.90
17370;DHT22;8802;52.402;4.920;2023-01-05T09:22:37;13.90;99.90
17370;DHT22;8802;52.402;4.920;2023-01-05T09:25:04;13.90;99.90
17370;DHT22;8802;52.402;4.920;2023-01-05T09:27:31;13.90;99.90
17370;DHT22;8802;52.402;4.920;2023-01-05T09:29:59;13.90;99.90
17370;DHT22;8802;52.402;4.920;2023-01-05T09:32:26;13.90;99.90
17370;DHT22;8802;52.402;4.920;2023-01-05T09:34:53;13.90;99.90
17370;DHT22;8802;52.402;4.920;2023-01-05T09:37:20;13.90;99.90
17370;DHT22;8802;52.402;4.920;2023-01-05T09:39:47;13.90;99.90
17370;DHT22;8802;52.402;4.920;2023-01-05T09:42:16;13.90;99.90
17370;DHT22;8802;52.402;4.920;2023-01-05T09:44:46;13.90;99.90
17370;DHT22;8802;52.402;4.920;2023-01-05T09:47:19;13.90;99.90
17370;DHT22;8802;52.402;4.920;2023-01-05T09:49:49;13.90;99.90
17370;DHT22;8802;52.402;4.920;2023-01-05T09:52:19;14.00;99.90
17370;DHT22;8802;52.402;4.920;2023-01-05T09:54:46;14.00;99.90
17370;DHT22;8802;52.402;4.920;2023-01-05T09:57:16;13.90;99.90
17370;DHT22;8802;52.402;4.920;2023-01-05T09:59:45;14.00;99.90
17370;DHT22;8802;52.402;4.920;2023-01-05T10:02:19;14.00;99.90
17370;DHT22;8802;52.402;4.920;2023-01-05T10:04:46;14.00;99.90
17370;DHT22;8802;52.402;4.920;2023-01-05T10:07:19;14.00;99.90
17370;DHT22;8802;52.402;4.920;2023-01-05T10:09:48;14.00;99.90
17370;DHT22;8802;52.402;4.920;2023-01-05T10:12:20;14.10;99.90
17370;DHT22;8802;52.402;4.920;2023-01-05T10:15:08;14.00;99.90
17370;DHT22;8802;52.402;4.920;2023-01-05T10:17:38;14.10;99.90
17370;DHT22;8802;52.402;4.920;2023-01-05T10:20:14;14.10;99.90
17370;DHT22;8802;52.402;4.920;2023-01-05T10:22:48;14.10;99.90
17370;DHT22;8802;52.402;4.920;2023-01-05T10:25:20;14.10;99.90
17370;DHT22;8802;52.402;4.920;2023-01-05T10:27:55;14.10;99.90
17370;DHT22;8802;52.402;4.920;2023-01-05T10:30:25;14.10;99.90
17370;DHT22;8802;52.402;4.920;2023-01-05T10:32:59;14.10;99.90
17370;DHT22;8802;52.402;4.920;2023-01-05T10:35:48;14.10;99.90
17370;DHT22;8802;52.402;4.920;2023-01-05T10:38:29;14.10;99.90
17370;DHT22;8802;52.402;4.920;2023-01-05T10:41:07;14.10;99.90
17370;DHT22;8802;52.402;4.920;2023-01-05T10:43:50;14.10;99.90
17370;DHT22;8802;52.402;4.920;2023-01-05T10:46:22;14.20;99.90
17370;DHT22;8802;52.402;4.920;2023-01-05T10:48:51;14.20;99.90
17370;DHT22;8802;52.402;4.920;2023-01-05T10:51:18;14.20;99.90
17370;DHT22;8802;52.402;4.920;2023-01-05T10:53:45;14.20;99.90
17370;DHT22;8802;52.402;4.920;2023-01-05T10:56:13;14.20;99.90
17370;DHT22;8802;52.402;4.920;2023-01-05T10:58:42;14.20;99.90
17370;DHT22;8802;52.402;4.920;2023-01-05T11:01:23;14.20;99.90
17370;DHT22;8802;52.402;4.920;2023-01-05T11:03:55;14.30;99.90
17370;DHT22;8802;52.402;4.920;2023-01-05T11:06:28;14.30;99.90
17370;DHT22;8802;52.402;4.920;2023-01-05T11:09:04;14.30;99.90
17370;DHT22;8802;52.402;4.920;2023-01-05T11:11:31;14.30;99.90
17370;DHT22;8802;52.402;4.920;2023-01-05T11:13:58;14.30;99.90
17370;DHT22;8802;52.402;4.920;2023-01-05T11:16:26;14.30;99.90
17370;DHT22;8802;52.402;4.920;2023-01-05T11:18:57;14.30;99.90
17370;DHT22;8802;52.402;4.920;2023-01-05T11:21:26;14.40;99.90
17370;DHT22;8802;52.402;4.920;2023-01-05T11:23:55;14.40;99.90
17370;DHT22;8802;52.402;4.920;2023-01-05T11:26:31;14.40;99.90
17370;DHT22;8802;52.402;4.920;2023-01-05T11:29:12;14.40;99.90
17370;DHT22;8802;52.402;4.920;2023-01-05T11:31:43;14.40;99.90
17370;DHT22;8802;52.402;4.920;2023-01-05T11:34:33;14.40;99.90
17370;DHT22;8802;52.402;4.920;2023-01-05T11:37:03;14.40;99.90
17370;DHT22;8802;52.402;4.920;2023-01-05T11:39:33;14.50;99.90
17370;DHT22;8802;52.402;4.920;2023-01-05T11:42:10;14.50;99.90
17370;DHT22;8802;52.402;4.920;2023-01-05T11:44:40;14.50;99.90
17370;DHT22;8802;52.402;4.920;2023-01-05T11:47:07;14.50;99.90
17370;DHT22;8802;52.402;4.920;2023-01-05T11:49:36;14.50;99.90
17370;DHT22;8802;52.402;4.920;2023-01-05T11:52:03;14.60;99.90
17370;DHT22;8802;52.402;4.920;2023-01-05T11:54:49;14.60;99.90
17370;DHT22;8802;52.402;4.920;2023-01-05T11:57:18;14.60;99.90
17370;DHT22;8802;52.402;4.920;2023-01-05T11:59:47;14.60;99.90
17370;DHT22;8802;52.402;4.920;2023-01-05T12:03:06;14.70;99.90
17370;DHT22;8802;52.402;4.920;2023-01-05T12:05:41;14.70;99.90
17370;DHT22;8802;52.402;4.920;2023-01-05T12:08:14;14.70;99.90
17370;DHT22;8802;52.402;4.920;2023-01-05T12:10:54;14.70;99.90
17370;DHT22;8802;52.402;4.920;2023-01-05T12:13:47;14.80;99.90
17370;DHT22;8802;52.402;4.920;2023-01-05T12:16:24;14.80;99.90
17370;DHT22;8802;52.402;4.920;2023-01-05T12:19:13;14.80;99.90
17370;DHT22;8802;52.402;4.920;2023-01-05T12:21:55;14.90;99.90
17370;DHT22;8802;52.402;4.920;2023-01-05T12:24:39;14.90;99.90
17370;DHT22;8802;52.402;4.920;2023-01-05T12:27:21;15.00;99.90
17370;DHT22;8802;52.402;4.920;2023-01-05T12:30:09;15.00;99.90
17370;DHT22;8802;52.402;4.920;2023-01-05T12:32:46;15.10;99.90
17370;DHT22;8802;52.402;4.920;2023-01-05T12:35:37;15.10;99.90
17370;DHT22;8802;52.402;4.920;2023-01-05T12:38:21;15.10;99.90
17370;DHT22;8802;52.402;4.920;2023-01-05T12:40:59;15.20;99.90
17370;DHT22;8802;52.402;4.920;2023-01-05T12:43:36;15.20;99.90
17370;DHT22;8802;52.402;4.920;2023-01-05T12:46:12;15.30;99.90
17370;DHT22;8802;52.402;4.920;2023-01-05T12:48:45;15.30;99.90
17370;DHT22;8802;52.402;4.920;2023-01-05T12:51:17;15.30;99.90
17370;DHT22;8802;52.402;4.920;2023-01-05T12:53:50;15.30;99.90
17370;DHT22;8802;52.402;4.920;2023-01-05T12:56:23;15.30;99.90
17370;DHT22;8802;52.402;4.920;2023-01-05T12:59:12;15.40;99.90
17370;DHT22;8802;52.402;4.920;2023-01-05T13:01:53;15.40;99.90
17370;DHT22;8802;52.402;4.920;2023-01-05T13:04:35;15.40;99.90
17370;DHT22;8802;52.402;4.920;2023-01-05T13:07:08;15.40;99.80
17370;DHT22;8802;52.402;4.920;2023-01-05T13:09:38;15.40;99.90
17370;DHT22;8802;52.402;4.920;2023-01-05T13:12:07;15.40;99.90
17370;DHT22;8802;52.402;4.920;2023-01-05T13:14:37;15.40;99.90
17370;DHT22;8802;52.402;4.920;2023-01-05T13:17:12;15.40;99.90
17370;DHT22;8802;52.402;4.920;2023-01-05T13:19:44;15.40;99.80
17370;DHT22;8802;52.402;4.920;2023-01-05T13:22:19;15.40;99.80
17370;DHT22;8802;52.402;4.920;2023-01-05T13:24:53;15.40;99.70
17370;DHT22;8802;52.402;4.920;2023-01-05T13:27:21;15.40;99.90
17370;DHT22;8802;52.402;4.920;2023-01-05T13:29:51;15.40;99.90
17370;DHT22;8802;52.402;4.920;2023-01-05T13:32:50;15.40;99.90
17370;DHT22;8802;52.402;4.920;2023-01-05T13:35:33;15.30;99.90
17370;DHT22;8802;52.402;4.920;2023-01-05T13:41:02;15.30;99.90
17370;DHT22;8802;52.402;4.920;2023-01-05T13:44:20;15.30;99.90
17370;DHT22;8802;52.402;4.920;2023-01-05T13:47:10;15.30;99.90
17370;DHT22;8802;52.402;4.920;2023-01-05T13:50:03;15.30;99.90
17370;DHT22;8802;52.402;4.920;2023-01-05T13:52:48;15.30;99.90
17370;DHT22;8802;52.402;4.920;2023-01-05T13:55:18;15.30;99.90
17370;DHT22;8802;52.402;4.920;2023-01-05T13:57:47;15.30;99.90
17370;DHT22;8802;52.402;4.920;2023-01-05T14:00:25;15.20;99.90
17370;DHT22;8802;52.402;4.920;2023-01-05T14:03:04;15.20;99.90
17370;DHT22;8802;52.402;4.920;2023-01-05T14:05:40;15.20;99.90
17370;DHT22;8802;52.402;4.920;2023-01-05T14:08:18;15.20;99.90
17370;DHT22;8802;52.402;4.920;2023-01-05T14:13:54;15.10;99.90
17370;DHT22;8802;52.402;4.920;2023-01-05T14:16:48;15.20;99.90
17370;DHT22;8802;52.402;4.920;2023-01-05T14:22:32;15.10;99.90
17370;DHT22;8802;52.402;4.920;2023-01-05T14:28:41;15.10;99.90
17370;DHT22;8802;52.402;4.920;2023-01-05T14:31:47;15.10;99.90
17370;DHT22;8802;52.402;4.920;2023-01-05T14:34:18;15.10;99.90
17370;DHT22;8802;52.402;4.920;2023-01-05T14:37:05;15.10;99.90
17370;DHT22;8802;52.402;4.920;2023-01-05T14:39:39;15.10;99.90
17370;DHT22;8802;52.402;4.920;2023-01-05T14:42:15;15.00;99.90
17370;DHT22;8802;52.402;4.920;2023-01-05T14:44:46;15.00;99.90
17370;DHT22;8802;52.402;4.920;2023-01-05T14:47:17;15.00;99.90
17370;DHT22;8802;52.402;4.920;2023-01-05T14:49:57;15.00;99.90
17370;DHT22;8802;52.402;4.920;2023-01-05T14:52:54;15.00;99.90
17370;DHT22;8802;52.402;4.920;2023-01-05T14:55:25;14.90;99.90
17370;DHT22;8802;52.402;4.920;2023-01-05T14:57:54;15.00;99.90
17370;DHT22;8802;52.402;4.920;2023-01-05T15:00:29;14.90;99.90
17370;DHT22;8802;52.402;4.920;2023-01-05T15:03:10;14.90;99.90
17370;DHT22;8802;52.402;4.920;2023-01-05T15:05:43;14.90;99.90
17370;DHT22;8802;52.402;4.920;2023-01-05T15:08:22;14.90;99.90
17370;DHT22;8802;52.402;4.920;2023-01-05T15:17:25;14.80;99.90
17370;DHT22;8802;52.402;4.920;2023-01-05T15:20:16;14.80;99.90
17370;DHT22;8802;52.402;4.920;2023-01-05T15:22:58;14.80;99.90
17370;DHT22;8802;52.402;4.920;2023-01-05T15:25:40;14.70;99.90
17370;DHT22;8802;52.402;4.920;2023-01-05T15:31:41;14.70;99.90
17370;DHT22;8802;52.402;4.920;2023-01-05T15:34:19;14.60;99.90
17370;DHT22;8802;52.402;4.920;2023-01-05T15:36:52;14.60;99.90
17370;DHT22;8802;52.402;4.920;2023-01-05T15:39:25;14.60;99.90
17370;DHT22;8802;52.402;4.920;2023-01-05T15:41:55;14.50;99.90
17370;DHT22;8802;52.402;4.920;2023-01-05T15:44:31;14.50;99.90
17370;DHT22;8802;52.402;4.920;2023-01-05T15:46:58;14.50;99.90
17370;DHT22;8802;52.402;4.920;2023-01-05T15:49:29;14.50;99.90
17370;DHT22;8802;52.402;4.920;2023-01-05T15:51:57;14.40;99.90
17370;DHT22;8802;52.402;4.920;2023-01-05T15:54:26;14.40;99.90
17370;DHT22;8802;52.402;4.920;2023-01-05T15:56:54;14.40;99.90
17370;DHT22;8802;52.402;4.920;2023-01-05T15:59:26;14.40;99.90
17370;DHT22;8802;52.402;4.920;2023-01-05T16:01:53;14.40;99.90
17370;DHT22;8802;52.402;4.920;2023-01-05T16:04:20;14.40;99.90
17370;DHT22;8802;52.402;4.920;2023-01-05T16:06:49;14.30;99.90
17370;DHT22;8802;52.402;4.920;2023-01-05T16:09:24;14.30;99.90
17370;DHT22;8802;52.402;4.920;2023-01-05T16:11:55;14.30;99.90
17370;DHT22;8802;52.402;4.920;2023-01-05T16:14:25;14.30;99.90
17370;DHT22;8802;52.402;4.920;2023-01-05T16:16:58;14.30;99.90
17370;DHT22;8802;52.402;4.920;2023-01-05T16:19:29;14.30;99.90
17370;DHT22;8802;52.402;4.920;2023-01-05T16:22:01;14.30;99.90
17370;DHT22;8802;52.402;4.920;2023-01-05T16:24:35;14.30;99.90
17370;DHT22;8802;52.402;4.920;2023-01-05T16:27:05;14.30;99.90
17370;DHT22;8802;52.402;4.920;2023-01-05T16:29:35;14.30;99.90
17370;DHT22;8802;52.402;4.920;2023-01-05T16:32:03;14.30;99.90
17370;DHT22;8802;52.402;4.920;2023-01-05T16:34:30;14.20;99.90
17370;DHT22;8802;52.402;4.920;2023-01-05T16:37:01;14.20;99.90
17370;DHT22;8802;52.402;4.920;2023-01-05T16:39:36;14.20;99.90